Time;durP1;ratioP1;P1;durP2;ratioP2;P2;SDS_P1;SDS_P2;PMS_P1;PMS_P2;Temp;Humidity;BMP_temperature;BMP_pressure;BME280_temperature;BME280_humidity;BME280_pressure;Samples;Min_cycle;Max_cycle;Signal;HPM_P1;HPM_P2
2021/04/09 00:01:56;;;;;;;8.00;2.42;;;8.50;61.50;;;;;;5072348;28;20024;-75
2021/04/09 00:04:22;;;;;;;4.25;2.42;;;8.40;62.00;;;;;;5072220;28;20089;-75
2021/04/09 00:06:48;;;;;;;4.85;1.67;;;8.40;62.20;;;;;;5072390;28;20470;-75
2021/04/09 00:09:14;;;;;;;5.57;2.22;;;8.40;63.10;;;;;;5071342;28;20024;-75
2021/04/09 00:11:40;;;;;;;6.22;2.28;;;8.40;62.60;;;;;;5072351;28;20099;-76
2021/04/09 00:14:09;;;;;;;6.25;1.73;;;8.30;63.00;;;;;;5072171;28;20033;-75
2021/04/09 00:16:34;;;;;;;9.50;2.10;;;8.20;63.20;;;;;;5072186;28;20110;-75
2021/04/09 00:19:00;;;;;;;4.78;2.25;;;8.20;63.40;;;;;;5072702;28;20079;-75
2021/04/09 00:21:27;;;;;;;2.78;2.17;;;8.20;63.30;;;;;;5072537;28;20028;-75
2021/04/09 00:23:53;;;;;;;3.45;2.17;;;8.30;63.30;;;;;;5072100;28;20067;-75
2021/04/09 00:26:19;;;;;;;5.53;2.30;;;8.30;63.30;;;;;;5072842;28;20024;-76
2021/04/09 00:28:44;;;;;;;6.63;2.22;;;8.30;63.10;;;;;;5079036;28;20036;-75
2021/04/09 00:31:10;;;;;;;4.30;2.35;;;8.40;63.40;;;;;;5071141;28;20124;-75
2021/04/09 00:33:36;;;;;;;4.57;2.05;;;8.30;63.60;;;;;;5072547;28;20056;-75
2021/04/09 00:36:01;;;;;;;6.85;1.88;;;8.30;63.70;;;;;;5072140;28;20466;-75
2021/04/09 00:38:27;;;;;;;4.65;2.03;;;8.30;63.70;;;;;;5071006;28;20466;-75
2021/04/09 00:40:53;;;;;;;9.13;2.50;;;8.30;63.90;;;;;;5072133;28;20039;-75
2021/04/09 00:43:19;;;;;;;7.53;2.22;;;8.30;64.20;;;;;;5070991;28;20024;-75
2021/04/09 00:45:45;;;;;;;3.20;2.20;;;8.30;64.20;;;;;;5070825;28;20458;-75
2021/04/09 00:48:10;;;;;;;4.13;1.95;;;8.20;64.50;;;;;;5072323;28;20029;-75
2021/04/09 00:50:37;;;;;;;9.52;2.75;;;8.10;64.80;;;;;;5076160;28;20057;-76
2021/04/09 00:53:06;;;;;;;3.85;1.95;;;8.20;64.80;;;;;;5075961;28;20363;-75
2021/04/09 00:55:32;;;;;;;5.60;1.88;;;8.10;65.00;;;;;;5075298;28;20033;-75
2021/04/09 00:57:59;;;;;;;4.88;2.03;;;8.10;65.00;;;;;;5070345;28;20518;-75
2021/04/09 01:00:26;;;;;;;7.38;2.30;;;8.00;65.10;;;;;;5065141;28;20021;-76
2021/04/09 01:02:53;;;;;;;4.70;2.47;;;7.90;65.60;;;;;;5074315;28;20020;-75
2021/04/09 01:05:19;;;;;;;4.95;2.75;;;8.00;65.70;;;;;;5075469;28;20524;-75
2021/04/09 01:07:46;;;;;;;9.68;2.70;;;7.90;65.70;;;;;;5075878;28;20021;-75
2021/04/09 01:10:14;;;;;;;4.55;2.30;;;7.90;65.90;;;;;;5075417;28;20080;-75
2021/04/09 01:12:40;;;;;;;5.97;2.72;;;8.00;65.80;;;;;;5075223;28;20032;-76
2021/04/09 01:15:09;;;;;;;4.20;2.28;;;8.00;65.80;;;;;;5073992;28;20035;-75
2021/04/09 01:17:43;;;;;;;5.47;2.67;;;8.00;65.80;;;;;;5074188;28;20340;-75
2021/04/09 01:20:23;;;;;;;4.13;2.33;;;7.90;65.80;;;;;;5075048;28;20027;-75
2021/04/09 01:23:22;;;;;;;9.05;2.50;;;7.90;66.40;;;;;;5074845;28;20020;-76
2021/04/09 01:25:57;;;;;;;7.30;3.10;;;7.90;66.50;;;;;;5074018;28;20028;-75
2021/04/09 01:28:44;;;;;;;8.43;3.30;;;7.90;66.80;;;;;;5074080;28;20033;-75
2021/04/09 01:31:35;;;;;;;4.72;2.28;;;7.80;66.90;;;;;;5073666;28;20504;-75
2021/04/09 01:34:02;;;;;;;2.97;1.85;;;7.90;66.70;;;;;;5075268;28;20107;-75
2021/04/09 01:36:56;;;;;;;2.67;2.30;;;7.90;66.60;;;;;;5073666;28;20032;-75
2021/04/09 01:39:33;;;;;;;3.17;2.72;;;8.00;66.60;;;;;;5073406;28;20601;-75
2021/04/09 01:42:04;;;;;;;4.65;2.40;;;8.00;66.30;;;;;;5074911;28;20082;-75
2021/04/09 01:44:33;;;;;;;6.60;2.30;;;8.00;66.20;;;;;;5073560;28;20136;-76
2021/04/09 01:46:59;;;;;;;5.03;2.35;;;8.00;66.10;;;;;;5075199;28;20120;-75
2021/04/09 01:49:31;;;;;;;4.57;2.70;;;8.00;66.20;;;;;;5073674;28;20572;-75
2021/04/09 01:51:59;;;;;;;5.80;2.20;;;8.00;66.20;;;;;;5073578;28;20032;-75
2021/04/09 01:54:26;;;;;;;3.63;2.53;;;8.00;66.60;;;;;;5073243;28;20098;-75
2021/04/09 01:56:54;;;;;;;8.57;2.88;;;8.00;66.80;;;;;;5073269;28;20055;-76
2021/04/09 01:59:20;;;;;;;3.95;2.53;;;7.90;66.90;;;;;;5074348;28;20029;-75
2021/04/09 02:01:47;;;;;;;7.53;2.85;;;7.90;67.10;;;;;;5072432;28;20021;-75
2021/04/09 02:04:16;;;;;;;3.20;2.25;;;7.90;67.30;;;;;;5072804;28;20027;-76
2021/04/09 02:06:43;;;;;;;2.47;2.20;;;7.90;67.30;;;;;;5054792;28;20056;-75
2021/04/09 02:09:11;;;;;;;2.70;2.50;;;7.80;67.50;;;;;;5053461;28;20025;-76
2021/04/09 02:11:37;;;;;;;6.35;2.22;;;7.80;67.90;;;;;;5069182;28;20028;-75
2021/04/09 02:14:05;;;;;;;8.27;2.35;;;7.70;68.00;;;;;;5074285;28;20029;-76
2021/04/09 02:16:32;;;;;;;4.35;2.53;;;7.80;68.00;;;;;;5074293;28;20040;-75
2021/04/09 02:19:03;;;;;;;9.00;2.83;;;7.80;67.80;;;;;;5074338;28;20486;-75
2021/04/09 02:21:34;;;;;;;3.67;2.58;;;7.80;67.80;;;;;;5073098;28;20046;-75
2021/04/09 02:24:02;;;;;;;5.95;2.60;;;7.80;67.80;;;;;;5072784;28;20052;-75
2021/04/09 02:26:28;;;;;;;5.95;2.75;;;7.80;67.60;;;;;;5072243;28;20032;-75
2021/04/09 02:28:55;;;;;;;6.47;3.28;;;7.80;67.80;;;;;;5072832;28;20020;-76
2021/04/09 02:31:22;;;;;;;8.25;2.15;;;7.80;67.70;;;;;;5073972;28;20020;-76
2021/04/09 02:33:48;;;;;;;10.07;2.47;;;7.80;67.70;;;;;;5074926;28;20532;-75
2021/04/09 02:36:19;;;;;;;6.28;2.25;;;7.80;67.80;;;;;;5074101;28;20032;-76
2021/04/09 02:38:49;;;;;;;3.80;2.42;;;7.80;68.00;;;;;;5072736;28;20028;-75
2021/04/09 02:41:17;;;;;;;10.77;2.58;;;7.70;68.10;;;;;;5074067;28;20070;-76
2021/04/09 02:43:43;;;;;;;5.45;2.60;;;7.70;67.80;;;;;;5073660;28;20025;-75
2021/04/09 02:46:20;;;;;;;5.53;2.67;;;7.80;68.80;;;;;;5072595;28;20047;-75
2021/04/09 02:48:55;;;;;;;6.18;2.70;;;7.80;67.70;;;;;;5073912;28;20028;-75
2021/04/09 02:51:22;;;;;;;3.42;2.35;;;7.80;67.70;;;;;;5072360;28;20037;-75
2021/04/09 02:53:49;;;;;;;6.43;2.95;;;7.80;67.50;;;;;;5073540;28;20029;-75
2021/04/09 02:56:16;;;;;;;4.03;2.85;;;7.80;67.50;;;;;;5073538;28;20360;-75
2021/04/09 02:58:44;;;;;;;4.40;2.67;;;7.70;67.80;;;;;;5073453;28;20360;-76
2021/04/09 03:01:10;;;;;;;8.52;2.40;;;7.70;67.90;;;;;;5073649;28;20057;-75
2021/04/09 03:03:37;;;;;;;5.03;2.53;;;7.60;68.20;;;;;;5072039;28;20111;-75
2021/04/09 03:06:05;;;;;;;7.53;2.40;;;7.70;68.10;;;;;;5072286;28;20024;-75
2021/04/09 03:08:32;;;;;;;7.35;2.45;;;7.70;68.00;;;;;;5073513;28;20498;-75
2021/04/09 03:11:01;;;;;;;9.95;2.42;;;7.80;68.10;;;;;;5073139;28;20074;-76
2021/04/09 03:13:28;;;;;;;5.47;2.78;;;7.80;67.90;;;;;;5072966;28;20086;-75
2021/04/09 03:15:58;;;;;;;3.45;2.78;;;7.80;68.20;;;;;;5073154;28;20028;-75
2021/04/09 03:18:27;;;;;;;7.68;3.00;;;7.70;68.30;;;;;;5071897;28;20134;-75
2021/04/09 03:20:56;;;;;;;3.20;2.47;;;7.60;68.50;;;;;;5071390;28;20020;-75
2021/04/09 03:23:22;;;;;;;6.30;2.60;;;7.60;68.80;;;;;;5073147;28;20509;-75
2021/04/09 03:25:48;;;;;;;5.60;3.17;;;7.60;69.10;;;;;;5072929;28;20035;-75
2021/04/09 03:28:14;;;;;;;4.57;2.38;;;7.50;69.20;;;;;;5072005;28;20083;-75
2021/04/09 03:30:40;;;;;;;4.10;2.97;;;7.50;69.20;;;;;;5073160;28;20039;-75
2021/04/09 03:33:06;;;;;;;5.72;2.60;;;7.50;69.30;;;;;;5071622;28;20028;-75
2021/04/09 03:35:32;;;;;;;7.20;2.50;;;7.40;69.50;;;;;;5073135;28;20367;-75
2021/04/09 03:37:58;;;;;;;2.97;2.60;;;7.40;69.80;;;;;;5072767;28;20112;-75
2021/04/09 03:40:24;;;;;;;7.68;2.65;;;7.40;69.70;;;;;;5072716;28;20103;-76
2021/04/09 03:42:49;;;;;;;6.97;2.92;;;7.50;69.70;;;;;;5071280;28;20023;-76
2021/04/09 03:45:15;;;;;;;8.85;2.92;;;7.40;70.00;;;;;;5071726;28;20024;-75
2021/04/09 03:47:41;;;;;;;3.47;2.53;;;7.50;70.10;;;;;;5071339;28;20115;-75
2021/04/09 03:50:08;;;;;;;7.65;3.03;;;7.40;70.90;;;;;;5072844;28;20025;-75
2021/04/09 03:52:37;;;;;;;3.78;2.63;;;7.40;70.50;;;;;;5071390;28;20398;-75
2021/04/09 03:55:05;;;;;;;4.47;2.67;;;7.30;70.40;;;;;;5072854;28;20024;-75
2021/04/09 03:57:30;;;;;;;9.15;3.00;;;7.30;70.50;;;;;;5072722;28;20021;-76
2021/04/09 03:59:56;;;;;;;6.50;3.20;;;7.40;70.50;;;;;;5072885;28;20021;-75
2021/04/09 04:02:22;;;;;;;7.50;2.80;;;7.30;70.50;;;;;;5072651;28;20077;-76
2021/04/09 04:04:47;;;;;;;8.13;2.85;;;7.30;70.70;;;;;;5072735;28;20020;-75
2021/04/09 04:07:13;;;;;;;7.15;2.65;;;7.40;70.60;;;;;;5071301;28;20036;-76
2021/04/09 04:09:39;;;;;;;2.88;2.55;;;7.40;70.80;;;;;;5072165;28;20033;-75
2021/04/09 04:12:05;;;;;;;7.90;3.40;;;7.30;70.80;;;;;;5072563;28;20509;-75
2021/04/09 04:14:31;;;;;;;8.45;2.83;;;7.30;71.20;;;;;;5072007;28;20043;-76
2021/04/09 04:16:57;;;;;;;4.75;3.78;;;7.30;71.10;;;;;;5072402;28;20457;-76
2021/04/09 04:19:22;;;;;;;7.05;2.90;;;7.30;71.10;;;;;;5071027;28;20028;-75
2021/04/09 04:21:51;;;;;;;6.72;3.45;;;7.30;71.00;;;;;;5071823;28;20539;-75
2021/04/09 04:24:16;;;;;;;5.22;3.10;;;7.30;71.30;;;;;;5073607;28;20048;-75
2021/04/09 04:26:42;;;;;;;5.68;2.97;;;7.30;71.40;;;;;;5071215;28;20117;-75
2021/04/09 04:29:08;;;;;;;4.75;2.85;;;7.30;71.30;;;;;;5074911;28;20024;-75
2021/04/09 04:31:33;;;;;;;8.23;2.90;;;7.30;71.40;;;;;;5079934;28;20062;-76
2021/04/09 04:33:59;;;;;;;5.28;3.00;;;7.30;71.50;;;;;;5075264;28;20132;-75
2021/04/09 04:36:25;;;;;;;6.03;2.88;;;7.30;71.60;;;;;;5074697;28;20047;-75
2021/04/09 04:38:51;;;;;;;4.25;3.25;;;7.30;71.80;;;;;;5075799;28;20033;-76
2021/04/09 04:41:17;;;;;;;9.48;3.13;;;7.30;71.90;;;;;;5074157;28;20382;-75
2021/04/09 04:43:44;;;;;;;11.23;3.28;;;7.20;72.00;;;;;;5074279;28;20119;-75
2021/04/09 04:46:10;;;;;;;8.32;3.33;;;7.20;72.20;;;;;;5075351;28;20103;-76
2021/04/09 04:48:35;;;;;;;13.32;3.63;;;7.20;72.30;;;;;;5075746;28;20095;-75
2021/04/09 04:51:01;;;;;;;8.55;2.90;;;7.20;72.50;;;;;;5075514;28;20023;-76
2021/04/09 04:53:27;;;;;;;7.07;3.33;;;7.10;72.60;;;;;;5074360;28;20028;-75
2021/04/09 04:55:52;;;;;;;6.50;3.08;;;7.10;72.60;;;;;;5075726;28;20489;-75
2021/04/09 04:58:18;;;;;;;9.23;4.20;;;7.10;72.60;;;;;;5075806;28;20029;-75
2021/04/09 05:00:44;;;;;;;8.75;4.05;;;7.10;72.90;;;;;;5075600;28;20494;-75
2021/04/09 05:03:10;;;;;;;5.95;3.28;;;7.10;73.00;;;;;;5075547;28;20046;-76
2021/04/09 05:05:36;;;;;;;7.78;3.45;;;7.00;73.30;;;;;;5075636;28;20024;-76
2021/04/09 05:08:01;;;;;;;8.82;3.75;;;7.00;73.50;;;;;;5074188;28;20017;-75
2021/04/09 05:10:27;;;;;;;8.23;3.30;;;7.00;73.60;;;;;;5074054;28;20025;-75
2021/04/09 05:12:53;;;;;;;6.47;3.20;;;7.00;73.60;;;;;;5074174;28;20031;-75
2021/04/09 05:15:19;;;;;;;8.65;3.80;;;7.00;73.60;;;;;;5073402;28;20102;-76
2021/04/09 05:17:44;;;;;;;6.63;3.42;;;7.10;73.70;;;;;;5073744;28;20017;-76
2021/04/09 05:20:10;;;;;;;5.57;3.30;;;7.10;73.40;;;;;;5074046;28;20067;-76
2021/04/09 05:22:36;;;;;;;30.27;4.22;;;7.10;73.40;;;;;;5075471;28;20012;-76
2021/04/09 05:25:02;;;;;;;8.10;3.97;;;7.10;73.50;;;;;;5074147;28;20146;-76
2021/04/09 05:27:28;;;;;;;8.50;3.67;;;7.10;73.70;;;;;;5074572;28;20020;-76
2021/04/09 05:29:54;;;;;;;5.07;3.45;;;7.10;73.80;;;;;;5074551;28;20016;-76
2021/04/09 05:32:19;;;;;;;4.63;3.38;;;7.10;74.10;;;;;;5075420;28;20223;-79
2021/04/09 05:34:45;;;;;;;9.10;4.55;;;7.10;74.20;;;;;;5074870;28;20017;-79
2021/04/09 05:37:11;;;;;;;4.63;4.05;;;7.10;74.40;;;;;;5075122;28;20031;-79
2021/04/09 05:39:37;;;;;;;11.02;3.72;;;7.10;74.30;;;;;;5075394;28;20179;-79
2021/04/09 05:42:04;;;;;;;5.70;3.58;;;7.10;74.50;;;;;;5074881;28;20116;-79
2021/04/09 05:44:33;;;;;;;8.30;3.80;;;7.10;74.60;;;;;;5075101;28;20027;-80
2021/04/09 05:46:59;;;;;;;10.30;3.42;;;7.20;74.40;;;;;;5074074;28;20428;-79
2021/04/09 05:49:24;;;;;;;7.78;3.95;;;7.30;74.30;;;;;;5075245;28;20105;-79
2021/04/09 05:51:50;;;;;;;5.65;4.00;;;7.40;74.20;;;;;;5075189;28;20063;-80
2021/04/09 05:54:16;;;;;;;14.75;4.15;;;7.50;73.70;;;;;;5075106;28;20024;-79
2021/04/09 05:56:42;;;;;;;7.32;4.00;;;7.60;73.20;;;;;;5075074;28;20043;-79
2021/04/09 05:59:07;;;;;;;10.75;3.95;;;7.60;73.00;;;;;;5074830;28;20025;-79
2021/04/09 06:01:33;;;;;;;7.85;3.88;;;7.70;73.00;;;;;;5074885;28;20044;-79
2021/04/09 06:03:59;;;;;;;8.52;3.83;;;7.70;72.80;;;;;;5074604;28;20054;-79
2021/04/09 06:06:24;;;;;;;6.07;4.00;;;7.80;72.60;;;;;;5074808;28;20036;-79
2021/04/09 06:08:50;;;;;;;10.15;4.32;;;7.80;72.70;;;;;;5073582;28;20386;-79
2021/04/09 06:11:16;;;;;;;11.45;4.28;;;7.90;72.50;;;;;;5074491;28;20024;-79
2021/04/09 06:13:42;;;;;;;7.53;4.20;;;8.00;72.40;;;;;;5074266;28;20640;-80
2021/04/09 06:16:07;;;;;;;9.82;4.50;;;8.00;72.50;;;;;;5074359;28;20429;-79
2021/04/09 06:18:34;;;;;;;8.55;4.70;;;8.10;72.20;;;;;;5074619;28;20586;-79
2021/04/09 06:20:59;;;;;;;8.10;4.60;;;8.10;72.20;;;;;;5074314;28;20096;-79
2021/04/09 06:23:25;;;;;;;7.43;4.20;;;8.20;72.10;;;;;;5074335;28;20083;-79
2021/04/09 06:25:51;;;;;;;8.70;3.80;;;8.20;72.10;;;;;;5074285;28;20028;-79
2021/04/09 06:28:17;;;;;;;13.68;4.25;;;8.20;71.80;;;;;;5072970;28;20032;-79
2021/04/09 06:30:42;;;;;;;8.73;4.43;;;8.30;72.00;;;;;;5073952;28;20032;-79
2021/04/09 06:33:08;;;;;;;9.15;4.85;;;8.30;72.00;;;;;;5074161;28;20025;-79
2021/04/09 06:35:34;;;;;;;10.63;4.53;;;8.30;72.10;;;;;;5074410;28;20028;-79
2021/04/09 06:38:00;;;;;;;10.32;4.55;;;8.30;72.20;;;;;;5073571;28;20025;-80
2021/04/09 06:40:27;;;;;;;11.63;4.50;;;8.40;72.30;;;;;;5072250;28;20028;-80
2021/04/09 06:42:57;;;;;;;12.52;4.68;;;8.40;72.20;;;;;;5076387;28;20114;-79
2021/04/09 06:45:28;;;;;;;11.45;4.60;;;8.50;72.10;;;;;;5071670;28;20056;-76
2021/04/09 06:47:57;;;;;;;11.70;4.70;;;8.60;72.20;;;;;;5069413;28;20029;-76
2021/04/09 06:50:23;;;;;;;12.13;4.15;;;8.60;72.10;;;;;;5064657;28;20569;-79
2021/04/09 06:52:50;;;;;;;8.02;5.03;;;8.70;71.80;;;;;;5072418;28;20025;-80
2021/04/09 06:55:21;;;;;;;11.57;5.32;;;8.80;72.40;;;;;;5073524;28;20071;-80
2021/04/09 06:57:47;;;;;;;15.43;5.45;;;8.90;72.10;;;;;;5072475;28;20024;-80
2021/04/09 07:00:14;;;;;;;9.68;4.38;;;8.90;71.10;;;;;;5066283;28;20540;-80
2021/04/09 07:02:44;;;;;;;9.10;4.65;;;9.00;69.60;;;;;;5071991;28;20074;-80
2021/04/09 07:05:14;;;;;;;11.32;4.63;;;9.00;70.00;;;;;;5073464;28;20017;-81
2021/04/09 07:07:40;;;;;;;12.40;4.90;;;9.10;69.70;;;;;;5073488;28;20017;-76
2021/04/09 07:10:13;;;;;;;11.00;4.70;;;9.20;70.40;;;;;;5071180;28;20031;-75
2021/04/09 07:12:38;;;;;;;9.88;5.18;;;9.20;69.90;;;;;;5068718;28;20020;-76
2021/04/09 07:15:07;;;;;;;7.05;4.57;;;9.30;70.30;;;;;;5073145;28;20331;-75
2021/04/09 07:17:49;;;;;;;11.07;5.40;;;9.30;70.00;;;;;;5071872;28;20052;-76
2021/04/09 07:20:19;;;;;;;8.95;4.95;;;9.40;71.50;;;;;;5073159;28;20100;-75
2021/04/09 07:22:53;;;;;;;11.05;4.80;;;9.40;70.70;;;;;;5071686;28;20059;-76
2021/04/09 07:25:38;;;;;;;5.75;4.57;;;9.50;70.70;;;;;;5073205;28;20103;-76
2021/04/09 07:28:19;;;;;;;7.63;5.70;;;9.50;69.70;;;;;;5071912;28;20025;-75
2021/04/09 07:30:50;;;;;;;9.27;5.05;;;9.60;70.40;;;;;;5053075;28;20025;-75
2021/04/09 07:33:23;;;;;;;10.45;4.90;;;9.60;70.00;;;;;;5051601;28;20025;-75
2021/04/09 07:35:53;;;;;;;8.65;4.57;;;9.60;70.20;;;;;;5052784;28;20033;-76
2021/04/09 07:38:34;;;;;;;15.63;4.88;;;9.70;68.90;;;;;;5065550;28;20367;-76
2021/04/09 07:41:10;;;;;;;10.40;5.50;;;9.70;68.20;;;;;;5067487;28;20102;-75
2021/04/09 07:43:39;;;;;;;11.32;4.72;;;9.80;68.50;;;;;;5070281;28;20033;-75
2021/04/09 07:46:06;;;;;;;8.98;4.80;;;9.80;68.10;;;;;;5071460;28;20386;-75
2021/04/09 07:48:36;;;;;;;8.95;6.07;;;10.00;68.60;;;;;;5071780;28;20044;-75
2021/04/09 07:51:04;;;;;;;7.72;5.22;;;10.00;68.00;;;;;;5071486;28;20032;-75
2021/04/09 07:53:29;;;;;;;8.57;5.38;;;10.00;67.50;;;;;;5071710;28;20101;-76
2021/04/09 07:56:02;;;;;;;8.52;4.90;;;10.10;67.70;;;;;;5071684;28;20159;-75
2021/04/09 07:58:28;;;;;;;8.43;5.07;;;10.20;67.50;;;;;;5068955;28;20038;-75
2021/04/09 08:00:54;;;;;;;10.13;4.53;;;10.30;67.50;;;;;;5071669;28;20087;-75
2021/04/09 08:03:35;;;;;;;11.48;4.55;;;10.30;68.30;;;;;;5071750;28;20082;-75
2021/04/09 08:06:12;;;;;;;8.75;4.78;;;10.40;67.40;;;;;;5058935;28;20025;-75
2021/04/09 08:08:54;;;;;;;7.32;5.45;;;10.40;66.30;;;;;;5071577;28;20033;-75
2021/04/09 08:11:30;;;;;;;9.32;5.85;;;10.50;68.70;;;;;;5070626;28;20501;-75
2021/04/09 08:14:21;;;;;;;14.85;5.47;;;10.60;67.30;;;;;;5068585;28;20028;-75
2021/04/09 08:16:49;;;;;;;12.27;5.63;;;10.60;66.60;;;;;;5064839;28;20063;-75
2021/04/09 08:19:23;;;;;;;12.82;5.68;;;10.60;66.60;;;;;;5071422;28;20017;-75
2021/04/09 08:22:00;;;;;;;14.50;5.43;;;10.70;67.30;;;;;;5067897;28;20029;-75
2021/04/09 08:24:28;;;;;;;11.23;5.57;;;10.90;67.40;;;;;;5069928;28;20498;-75
2021/04/09 08:26:54;;;;;;;15.98;5.30;;;10.80;66.70;;;;;;5070291;28;20043;-75
2021/04/09 08:29:22;;;;;;;12.85;5.60;;;10.90;67.10;;;;;;5070027;28;20070;-75
2021/04/09 08:31:47;;;;;;;9.48;5.55;;;10.90;66.60;;;;;;5071791;28;20020;-76
2021/04/09 08:34:17;;;;;;;9.23;4.85;;;11.00;66.80;;;;;;5071871;28;20475;-75
2021/04/09 08:36:43;;;;;;;9.30;4.60;;;11.00;66.20;;;;;;5065166;28;20073;-75
2021/04/09 08:39:11;;;;;;;11.15;4.40;;;11.10;65.70;;;;;;5072346;28;20505;-75
2021/04/09 08:41:42;;;;;;;13.98;5.57;;;11.10;65.60;;;;;;5072354;28;20047;-75
2021/04/09 08:44:09;;;;;;;8.15;3.85;;;11.20;66.00;;;;;;5072368;28;20017;-75
2021/04/09 08:46:36;;;;;;;7.78;4.28;;;11.20;65.40;;;;;;5072055;28;20024;-75
2021/04/09 08:49:03;;;;;;;8.98;3.63;;;11.20;64.90;;;;;;5072211;28;20043;-75
2021/04/09 08:51:30;;;;;;;9.20;3.78;;;11.20;65.50;;;;;;5071089;28;20032;-75
2021/04/09 08:54:15;;;;;;;9.57;4.30;;;11.30;66.40;;;;;;5071755;28;20105;-75
2021/04/09 08:56:42;;;;;;;8.60;4.72;;;11.50;66.80;;;;;;5071543;28;20494;-75
2021/04/09 08:59:07;;;;;;;6.78;4.25;;;11.60;66.00;;;;;;5071305;28;20471;-75
2021/04/09 09:01:33;;;;;;;5.60;4.20;;;11.70;67.50;;;;;;5070465;28;20025;-75
2021/04/09 09:04:20;;;;;;;8.30;5.80;;;11.70;66.20;;;;;;5071460;28;20031;-75
2021/04/09 09:06:49;;;;;;;8.73;5.85;;;11.80;64.40;;;;;;5069516;28;20016;-75
2021/04/09 09:09:31;;;;;;;9.40;5.22;;;11.80;64.30;;;;;;5070146;28;20024;-75
2021/04/09 09:12:01;;;;;;;8.27;5.90;;;11.80;63.80;;;;;;5073971;28;20013;-75
2021/04/09 09:14:33;;;;;;;11.73;5.63;;;11.90;63.20;;;;;;5075139;28;20054;-75
2021/04/09 09:17:19;;;;;;;10.85;5.28;;;11.80;62.70;;;;;;5074976;28;20097;-74
2021/04/09 09:19:49;;;;;;;17.20;5.65;;;11.90;62.20;;;;;;5063205;28;20016;-75
2021/04/09 09:22:20;;;;;;;8.80;5.07;;;11.90;62.20;;;;;;5075056;28;20012;-75
2021/04/09 09:25:05;;;;;;;16.70;5.50;;;11.90;62.40;;;;;;5075349;28;20110;-74
2021/04/09 09:27:52;;;;;;;10.43;5.68;;;12.00;61.80;;;;;;5073708;28;20043;-72
2021/04/09 09:30:37;;;;;;;4.97;4.28;;;12.10;63.40;;;;;;5073284;28;20039;-73
2021/04/09 09:33:26;;;;;;;9.82;5.53;;;12.20;62.80;;;;;;5073827;28;20443;-74
2021/04/09 09:36:09;;;;;;;11.70;6.07;;;12.20;62.90;;;;;;5073716;28;20028;-74
2021/04/09 09:38:54;;;;;;;14.13;6.07;;;12.40;61.60;;;;;;5073488;28;20083;-74
2021/04/09 09:41:35;;;;;;;10.65;6.75;;;12.40;60.20;;;;;;5075108;28;20107;-74
2021/04/09 09:44:02;;;;;;;9.60;5.93;;;12.50;61.00;;;;;;5073465;28;20111;-74
2021/04/09 09:47:16;;;;;;;12.05;5.90;;;12.60;60.70;;;;;;5074842;28;20035;-74
2021/04/09 09:50:01;;;;;;;9.98;6.50;;;12.80;60.60;;;;;;5035864;28;20051;-74
2021/04/09 09:52:39;;;;;;;6.60;5.40;;;12.90;59.90;;;;;;5073452;28;20119;-73
2021/04/09 09:55:12;;;;;;;13.35;5.65;;;13.00;59.40;;;;;;5074835;28;20032;-74
2021/04/09 09:57:48;;;;;;;9.10;5.47;;;13.10;60.10;;;;;;5071960;28;20054;-74
2021/04/09 10:00:26;;;;;;;11.77;5.70;;;13.20;59.10;;;;;;5054818;28;20021;-74
2021/04/09 10:03:07;;;;;;;13.65;5.65;;;13.10;58.20;;;;;;5054658;28;20025;-74
2021/04/09 10:05:34;;;;;;;9.23;4.97;;;13.10;58.20;;;;;;5054617;28;20021;-74
2021/04/09 10:08:03;;;;;;;10.07;5.53;;;13.20;59.50;;;;;;5054747;28;20346;-74
2021/04/09 10:10:46;;;;;;;8.80;5.63;;;13.20;58.80;;;;;;5053314;28;20108;-74
2021/04/09 10:13:28;;;;;;;7.10;5.15;;;13.30;58.50;;;;;;5052886;28;20029;-74
2021/04/09 10:16:07;;;;;;;9.13;4.93;;;13.40;59.20;;;;;;5054298;28;20036;-74
2021/04/09 10:18:33;;;;;;;9.27;5.18;;;13.40;58.70;;;;;;5054260;28;20028;-74
2021/04/09 10:21:14;;;;;;;14.02;5.68;;;13.50;59.50;;;;;;5053630;28;20525;-74
2021/04/09 10:23:42;;;;;;;20.63;6.77;;;13.60;59.70;;;;;;5052557;28;20107;-74
2021/04/09 10:26:08;;;;;;;12.15;5.88;;;13.50;59.40;;;;;;5054259;28;20052;-73
2021/04/09 10:28:34;;;;;;;9.40;5.80;;;13.40;59.40;;;;;;5052836;28;20033;-74
2021/04/09 10:31:26;;;;;;;15.93;6.30;;;13.30;59.60;;;;;;5054032;28;20462;-74
2021/04/09 10:33:58;;;;;;;10.55;6.45;;;13.40;60.20;;;;;;5060442;28;20040;-73
2021/04/09 10:36:26;;;;;;;14.00;6.63;;;13.40;59.80;;;;;;5056515;28;20028;-74
2021/04/09 10:39:00;;;;;;;13.80;6.38;;;13.50;60.30;;;;;;5070635;28;20368;-74
2021/04/09 10:41:33;;;;;;;9.20;5.72;;;13.50;59.50;;;;;;5071248;28;20074;-73
2021/04/09 10:44:19;;;;;;;13.55;7.53;;;13.40;59.60;;;;;;5070276;28;20021;-74
2021/04/09 10:46:56;;;;;;;7.53;5.55;;;13.50;59.30;;;;;;5070757;28;20032;-73
2021/04/09 10:49:24;;;;;;;14.98;6.13;;;13.60;59.10;;;;;;5070827;28;20047;-73
2021/04/09 10:51:55;;;;;;;14.77;5.65;;;13.80;58.90;;;;;;5070157;28;20075;-73
2021/04/09 10:54:30;;;;;;;11.60;5.18;;;13.90;58.30;;;;;;5069950;28;20463;-73
2021/04/09 10:57:03;;;;;;;9.93;5.18;;;14.10;58.40;;;;;;5069873;28;20020;-73
2021/04/09 10:59:37;;;;;;;9.93;4.32;;;14.20;58.40;;;;;;5070457;28;20024;-73
2021/04/09 11:02:04;;;;;;;6.70;4.30;;;14.40;58.00;;;;;;5070910;28;20029;-73
2021/04/09 11:04:32;;;;;;;8.48;4.15;;;14.30;57.40;;;;;;5070361;28;20032;-73
2021/04/09 11:07:03;;;;;;;6.95;4.38;;;14.40;57.80;;;;;;5069159;28;20056;-74
2021/04/09 11:09:43;;;;;;;12.80;4.90;;;14.40;57.50;;;;;;5069253;28;20409;-73
2021/04/09 11:12:19;;;;;;;14.98;4.70;;;14.60;58.30;;;;;;5070086;28;20025;-73
2021/04/09 11:14:45;;;;;;;9.00;4.13;;;14.70;57.70;;;;;;5068623;28;20116;-73
2021/04/09 11:17:22;;;;;;;11.65;3.95;;;14.90;57.30;;;;;;5069923;28;20118;-73
2021/04/09 11:19:52;;;;;;;9.95;2.70;;;14.90;56.30;;;;;;5069931;28;20021;-73
2021/04/09 11:22:18;;;;;;;9.50;3.92;;;15.00;56.40;;;;;;5069549;28;20021;-73
2021/04/09 11:24:44;;;;;;;8.32;3.88;;;15.00;56.00;;;;;;5069592;28;20044;-73
2021/04/09 11:27:22;;;;;;;6.55;3.03;;;15.10;56.40;;;;;;5069795;28;20643;-73
2021/04/09 11:29:48;;;;;;;11.38;3.58;;;15.10;56.10;;;;;;5068576;28;20066;-73
2021/04/09 11:32:20;;;;;;;8.50;3.97;;;15.00;55.60;;;;;;5069134;28;20109;-73
2021/04/09 11:34:52;;;;;;;6.57;2.80;;;15.10;56.20;;;;;;5069190;28;20078;-74
2021/04/09 11:37:20;;;;;;;5.18;3.08;;;15.10;56.10;;;;;;5067944;28;20083;-73
2021/04/09 11:39:54;;;;;;;7.05;2.60;;;15.00;55.30;;;;;;5063244;28;20475;-73
2021/04/09 11:42:31;;;;;;;8.82;2.15;;;15.00;55.60;;;;;;5050908;28;20103;-73
2021/04/09 11:44:58;;;;;;;7.32;2.45;;;14.90;55.70;;;;;;5057107;28;20021;-73
2021/04/09 11:47:33;;;;;;;5.93;2.17;;;14.90;55.30;;;;;;5049513;28;20025;-74
2021/04/09 11:50:09;;;;;;;11.27;2.95;;;14.70;54.30;;;;;;5053949;28;20047;-73
2021/04/09 11:52:53;;;;;;;6.80;2.72;;;14.60;55.00;;;;;;5065447;28;20040;-73
2021/04/09 11:55:25;;;;;;;10.90;2.45;;;14.60;56.00;;;;;;5047851;28;20464;-73
2021/04/09 11:57:51;;;;;;;7.18;2.42;;;14.60;56.40;;;;;;5095014;28;20091;-73
2021/04/09 12:00:35;;;;;;;6.63;2.88;;;14.40;55.80;;;;;;5048906;28;20475;-73
2021/04/09 12:03:04;;;;;;;4.88;2.85;;;14.40;56.30;;;;;;5050367;28;20028;-73
2021/04/09 12:05:34;;;;;;;11.68;3.25;;;14.40;56.50;;;;;;5058699;28;20080;-73
2021/04/09 12:08:01;;;;;;;5.70;2.53;;;14.40;57.00;;;;;;5068926;28;20025;-73
2021/04/09 12:10:29;;;;;;;13.05;3.88;;;14.40;57.10;;;;;;5067369;28;20033;-73
2021/04/09 12:12:55;;;;;;;9.00;3.60;;;14.40;56.80;;;;;;5067941;28;20020;-72
2021/04/09 12:15:23;;;;;;;8.00;3.58;;;14.40;56.80;;;;;;5068951;28;20016;-72
2021/04/09 12:17:49;;;;;;;4.35;3.65;;;14.50;57.50;;;;;;5068062;28;20051;-72
2021/04/09 12:20:18;;;;;;;11.25;4.60;;;14.40;57.20;;;;;;5068760;28;20527;-72
2021/04/09 12:22:45;;;;;;;10.43;4.38;;;14.50;57.00;;;;;;5068667;28;20029;-72
2021/04/09 12:25:12;;;;;;;9.32;4.30;;;14.50;56.70;;;;;;5069103;28;20030;-73
2021/04/09 12:27:39;;;;;;;11.05;4.32;;;14.40;56.20;;;;;;5068773;28;20086;-73
2021/04/09 12:30:06;;;;;;;8.20;3.67;;;14.50;56.80;;;;;;5069194;28;20071;-72
2021/04/09 12:32:32;;;;;;;11.80;4.50;;;14.50;56.40;;;;;;5067730;28;20483;-72
2021/04/09 12:34:58;;;;;;;4.60;3.90;;;14.50;56.70;;;;;;5066950;28;20378;-73
2021/04/09 12:37:24;;;;;;;5.65;3.70;;;14.60;56.60;;;;;;5058342;28;20033;-73
2021/04/09 12:39:50;;;;;;;14.13;4.18;;;14.60;56.50;;;;;;5061222;28;20414;-73
2021/04/09 12:42:16;;;;;;;10.35;3.80;;;14.70;55.80;;;;;;5068622;28;20028;-73
2021/04/09 12:44:42;;;;;;;4.22;3.88;;;14.70;55.60;;;;;;5070122;28;20013;-73
2021/04/09 12:47:08;;;;;;;12.45;4.47;;;14.80;55.40;;;;;;5072520;28;20059;-73
2021/04/09 12:49:34;;;;;;;6.78;4.65;;;14.80;55.70;;;;;;5073136;28;20483;-73
2021/04/09 12:52:00;;;;;;;9.00;4.80;;;14.90;56.30;;;;;;5072328;28;20012;-72
2021/04/09 12:54:25;;;;;;;4.55;3.80;;;15.00;56.20;;;;;;5072253;28;20029;-73
2021/04/09 12:56:51;;;;;;;8.10;4.07;;;15.00;54.80;;;;;;5073120;28;20021;-72
2021/04/09 12:59:17;;;;;;;7.75;4.03;;;15.00;54.30;;;;;;5054787;28;20029;-73
2021/04/09 13:01:46;;;;;;;5.03;3.90;;;15.20;54.80;;;;;;5050207;28;20036;-73
2021/04/09 13:04:12;;;;;;;10.63;4.25;;;15.50;54.80;;;;;;5051189;28;20021;-72